createdAt,value
2023-02-22T00:02:25.159Z,126.40
2023-02-22T00:04:53.265Z,124.78
2023-02-22T00:07:23.771Z,134.20
2023-02-22T00:09:51.935Z,138.48
2023-02-22T00:12:21.343Z,139.80
2023-02-22T00:14:51.137Z,131.93
2023-02-22T00:17:20.459Z,121.32
2023-02-22T00:19:50.660Z,133.13
2023-02-22T00:22:20.596Z,132.25
2023-02-22T00:24:50.163Z,128.98
2023-02-22T00:27:18.258Z,135.55
2023-02-22T00:29:48.319Z,132.15
2023-02-22T00:32:16.968Z,134.20
2023-02-22T00:34:45.174Z,131.07
2023-02-22T00:37:13.250Z,133.25
2023-02-22T00:39:41.586Z,138.60
2023-02-22T00:42:09.645Z,146.75
2023-02-22T00:44:37.756Z,143.32
2023-02-22T00:47:07.482Z,137.40
2023-02-22T00:49:35.878Z,142.23
2023-02-22T00:52:05.180Z,144.93
2023-02-22T00:54:33.643Z,137.48
2023-02-22T00:57:02.186Z,137.82
2023-02-22T00:59:31.195Z,140.20
2023-02-22T01:01:59.570Z,130.00
2023-02-22T01:04:29.740Z,127.47
2023-02-22T01:07:00.456Z,137.70
2023-02-22T01:09:29.353Z,128.25
2023-02-22T01:11:58.167Z,125.60
2023-02-22T01:14:28.342Z,134.30
2023-02-22T01:16:57.771Z,125.10
2023-02-22T01:19:25.932Z,138.68
2023-02-22T01:21:55.436Z,133.93
2023-02-22T01:24:23.506Z,130.35
2023-02-22T01:26:53.422Z,124.93
2023-02-22T01:29:22.481Z,121.68
2023-02-22T01:31:56.947Z,113.45
2023-02-22T01:34:26.018Z,130.13
2023-02-22T01:36:55.474Z,134.52
2023-02-22T01:39:23.553Z,132.45
2023-02-22T01:41:53.623Z,128.82
2023-02-22T01:44:31.478Z,126.97
2023-02-22T01:47:03.404Z,136.68
2023-02-22T01:49:38.172Z,127.88
2023-02-22T01:52:11.400Z,121.38
2023-02-22T01:54:44.088Z,133.45
2023-02-22T01:57:19.189Z,135.35
2023-02-22T01:59:52.531Z,136.30
2023-02-22T02:02:25.069Z,126.20
2023-02-22T02:04:57.330Z,112.07
2023-02-22T02:07:29.596Z,117.63
2023-02-22T02:10:00.379Z,116.97
2023-02-22T02:12:32.116Z,121.68
2023-02-22T02:15:21.576Z,120.43
2023-02-22T02:17:52.372Z,119.55
2023-02-22T02:20:28.200Z,123.97
2023-02-22T02:23:08.514Z,119.05
2023-02-22T02:26:19.702Z,114.93
2023-02-22T02:29:35.255Z,115.65
2023-02-22T02:32:32.976Z,116.93
2023-02-22T02:35:08.546Z,109.70
2023-02-22T02:37:48.619Z,119.50
2023-02-22T02:40:24.449Z,119.22
2023-02-22T02:43:01.183Z,121.03
2023-02-22T02:45:37.744Z,123.43
2023-02-22T02:48:11.014Z,120.20
2023-02-22T02:50:46.127Z,125.30
2023-02-22T02:53:19.021Z,117.43
2023-02-22T02:55:47.456Z,119.70
2023-02-22T02:58:20.971Z,118.45
2023-02-22T03:00:52.867Z,120.00
2023-02-22T03:03:47.750Z,125.22
2023-02-22T03:06:35.747Z,115.72
2023-02-22T03:09:16.992Z,125.50
2023-02-22T03:11:55.533Z,127.78
2023-02-22T03:14:36.355Z,120.38
2023-02-22T03:17:19.089Z,123.63
2023-02-22T03:19:52.758Z,123.15
2023-02-22T03:22:27.563Z,119.93
2023-02-22T03:25:08.825Z,126.28
2023-02-22T03:27:44.352Z,117.88
2023-02-22T03:30:21.059Z,125.38
2023-02-22T03:33:00.607Z,121.95
2023-02-22T03:35:36.418Z,124.55
2023-02-22T03:38:10.694Z,121.78
2023-02-22T03:40:44.404Z,125.03
2023-02-22T03:43:16.799Z,118.90
2023-02-22T03:45:50.034Z,120.45
2023-02-22T03:48:27.775Z,122.45
2023-02-22T03:51:00.924Z,115.93
2023-02-22T03:53:30.561Z,121.47
2023-02-22T03:56:02.329Z,129.52
2023-02-22T03:58:35.648Z,123.60
2023-02-22T04:01:04.491Z,126.55
2023-02-22T04:03:32.614Z,120.47
2023-02-22T04:06:02.174Z,121.30
2023-02-22T04:08:31.319Z,125.72
2023-02-22T04:11:01.413Z,127.65
2023-02-22T04:13:31.141Z,136.27
2023-02-22T04:16:01.264Z,134.77
2023-02-22T04:18:33.164Z,124.53
2023-02-22T04:21:03.554Z,116.25
2023-02-22T04:23:37.082Z,118.78
2023-02-22T04:26:06.219Z,117.20
2023-02-22T04:28:34.372Z,121.13
2023-02-22T04:31:12.225Z,120.55
2023-02-22T04:33:40.718Z,119.68
2023-02-22T04:36:13.535Z,117.90
2023-02-22T04:38:44.561Z,110.93
2023-02-22T04:41:13.688Z,121.07
2023-02-22T04:43:41.961Z,117.97
2023-02-22T04:46:17.719Z,122.30
2023-02-22T04:48:46.324Z,119.75
2023-02-22T04:51:18.133Z,122.32
2023-02-22T04:53:56.323Z,120.88
2023-02-22T04:56:24.963Z,122.22
2023-02-22T04:58:53.051Z,117.20
2023-02-22T05:01:21.314Z,122.68
2023-02-22T05:03:50.002Z,115.47
2023-02-22T05:06:19.968Z,118.90
2023-02-22T05:08:48.419Z,109.70
2023-02-22T05:11:16.741Z,112.25
2023-02-22T05:13:44.926Z,112.05
2023-02-22T05:16:13.754Z,111.05
2023-02-22T05:18:42.714Z,114.18
2023-02-22T05:21:13.558Z,115.88
2023-02-22T05:23:43.002Z,111.78
2023-02-22T05:26:11.810Z,109.53
2023-02-22T05:28:40.159Z,119.80
2023-02-22T05:31:09.060Z,109.20
2023-02-22T05:33:37.401Z,106.90
2023-02-22T05:36:07.753Z,118.60
2023-02-22T05:38:43.132Z,109.38
2023-02-22T05:41:13.900Z,105.55
2023-02-22T05:43:42.541Z,106.32
2023-02-22T05:46:10.700Z,108.13
2023-02-22T05:48:38.949Z,104.32
2023-02-22T05:51:09.702Z,104.90
2023-02-22T05:53:38.215Z,121.03
2023-02-22T05:56:07.492Z,119.07
2023-02-22T05:58:36.893Z,104.40
2023-02-22T06:01:05.099Z,114.43
2023-02-22T06:03:33.119Z,112.63
2023-02-22T06:06:01.206Z,114.38
2023-02-22T06:08:29.349Z,101.80
2023-02-22T06:10:57.799Z,107.07
2023-02-22T06:13:25.832Z,103.85
2023-02-22T06:15:55.681Z,108.70
2023-02-22T06:18:26.894Z,109.28
2023-02-22T06:20:55.002Z,106.17
2023-02-22T06:23:23.084Z,106.28
2023-02-22T06:25:51.451Z,114.18
2023-02-22T06:28:19.586Z,115.53
2023-02-22T06:30:48.401Z,116.13
2023-02-22T06:33:17.857Z,122.30
2023-02-22T06:35:46.877Z,120.00
2023-02-22T06:38:23.249Z,102.90
2023-02-22T06:40:51.702Z,108.13
2023-02-22T06:43:19.883Z,113.57
2023-02-22T06:45:48.567Z,100.82
2023-02-22T06:48:18.963Z,108.68
2023-02-22T06:50:47.082Z,102.68
2023-02-22T06:53:15.284Z,111.10
2023-02-22T06:55:43.744Z,114.75
2023-02-22T06:58:11.842Z,111.18
2023-02-22T07:00:40.383Z,118.32
2023-02-22T07:03:09.308Z,117.10
2023-02-22T07:05:38.952Z,120.68
2023-02-22T07:08:09.107Z,119.28
2023-02-22T07:10:39.215Z,117.30
2023-02-22T07:13:09.310Z,117.90
2023-02-22T07:15:38.055Z,114.90
2023-02-22T07:18:07.303Z,111.57
2023-02-22T07:20:36.319Z,122.20
2023-02-22T07:23:06.430Z,113.57
2023-02-22T07:25:34.800Z,119.28
2023-02-22T07:28:03.204Z,120.80
2023-02-22T07:30:34.191Z,125.05
2023-02-22T07:33:04.787Z,118.60
2023-02-22T07:35:38.376Z,117.38
2023-02-22T07:38:12.257Z,120.10
2023-02-22T07:40:40.719Z,122.65
2023-02-22T07:43:17.557Z,125.18
2023-02-22T07:45:47.090Z,133.32
2023-02-22T07:48:17.563Z,125.50
2023-02-22T07:50:46.535Z,127.95
2023-02-22T07:53:19.610Z,122.55
2023-02-22T07:55:51.000Z,133.18
2023-02-22T07:58:22.177Z,134.25
2023-02-22T08:00:50.522Z,133.77
2023-02-22T08:03:21.124Z,135.23
2023-02-22T08:05:52.091Z,128.48
2023-02-22T08:08:21.977Z,133.77
2023-02-22T08:10:51.439Z,139.02
2023-02-22T08:13:22.119Z,137.05
2023-02-22T08:15:53.499Z,134.20
2023-02-22T08:18:24.008Z,133.45
2023-02-22T08:20:53.936Z,137.70
2023-02-22T08:23:27.103Z,133.27
2023-02-22T08:25:56.222Z,141.48
2023-02-22T08:28:25.894Z,131.77
2023-02-22T08:30:55.039Z,137.85
2023-02-22T08:33:24.628Z,127.85
2023-02-22T08:35:54.475Z,134.70
2023-02-22T08:38:28.253Z,142.45
2023-02-22T08:40:57.016Z,148.05
2023-02-22T08:43:25.774Z,117.75
2023-02-22T08:45:57.279Z,143.00
2023-02-22T08:48:25.853Z,141.40
2023-02-22T08:50:54.975Z,146.00
2023-02-22T08:53:24.900Z,149.98
2023-02-22T08:55:53.950Z,147.73
2023-02-22T09:00:50.982Z,164.75
2023-02-22T09:03:19.082Z,156.35
2023-02-22T09:05:47.666Z,142.87
2023-02-22T09:08:17.241Z,163.15
2023-02-22T09:10:47.096Z,164.57
2023-02-22T09:13:15.636Z,164.07
2023-02-22T09:15:44.040Z,89.80
2023-02-22T09:18:15.489Z,163.57
2023-02-22T09:20:43.644Z,163.70
2023-02-22T09:23:12.166Z,140.03
2023-02-22T17:35:49.956Z,60.30
2023-02-22T17:38:18.706Z,64.20
2023-02-22T18:08:17.008Z,65.50
2023-02-22T18:28:37.871Z,79.30
2023-02-22T18:33:36.530Z,110.90
2023-02-22T18:36:05.611Z,116.60
2023-02-22T18:38:35.519Z,123.15
2023-02-22T18:41:06.481Z,123.72
2023-02-22T18:43:35.534Z,118.78
2023-02-22T18:48:37.839Z,64.00
2023-02-22T18:53:38.595Z,82.80
2023-02-22T18:56:09.570Z,86.95
2023-02-22T19:33:43.935Z,50.00
2023-02-22T19:38:45.039Z,50.00
2023-02-22T19:51:13.136Z,65.20
2023-02-22T19:53:44.889Z,111.15
2023-02-22T19:58:47.152Z,97.35
2023-02-22T20:01:22.892Z,61.95
2023-02-22T20:06:26.461Z,57.80
2023-02-22T20:09:00.428Z,77.80
2023-02-22T20:13:57.394Z,64.00
2023-02-22T20:18:56.053Z,102.50
2023-02-22T20:21:30.756Z,83.10
2023-02-22T20:29:01.102Z,108.80
2023-02-22T20:34:01.000Z,59.50
2023-02-22T20:36:36.124Z,61.90
2023-02-22T20:39:13.059Z,84.10
2023-02-22T20:41:44.848Z,71.10
2023-02-22T20:44:15.490Z,99.95
2023-02-22T20:46:46.430Z,92.40
2023-02-22T20:49:18.892Z,67.90
2023-02-22T20:51:53.225Z,112.97
2023-02-22T20:54:24.402Z,111.15
2023-02-22T20:56:54.055Z,100.55
2023-02-22T20:59:23.494Z,103.90
2023-02-22T21:01:54.271Z,95.97
2023-02-22T21:04:23.976Z,100.72
2023-02-22T21:06:53.070Z,99.80
2023-02-22T21:09:23.913Z,82.40
2023-02-22T21:11:55.149Z,110.88
2023-02-22T21:14:25.413Z,107.68
2023-02-22T21:16:55.728Z,97.75
2023-02-22T21:19:26.233Z,105.70
2023-02-22T21:21:56.892Z,105.70
2023-02-22T21:24:28.861Z,104.03
2023-02-22T21:27:00.258Z,104.68
2023-02-22T21:29:30.583Z,97.93
2023-02-22T21:32:01.859Z,109.70
2023-02-22T21:34:31.291Z,107.03
2023-02-22T21:37:01.951Z,106.97
2023-02-22T21:39:31.619Z,106.72
2023-02-22T21:42:00.453Z,108.65
2023-02-22T21:44:29.813Z,107.15
2023-02-22T21:46:59.177Z,112.13
2023-02-22T21:49:28.258Z,114.35
2023-02-22T21:52:00.505Z,114.80
2023-02-22T21:54:28.920Z,113.30
2023-02-22T21:57:01.230Z,115.78
2023-02-22T21:59:30.723Z,115.38
2023-02-22T22:02:01.242Z,111.60
2023-02-22T22:04:32.692Z,108.63
2023-02-22T22:07:03.881Z,112.97
2023-02-22T22:09:37.248Z,100.65
2023-02-22T22:14:36.991Z,100.50
2023-02-22T22:17:10.501Z,99.63
2023-02-22T22:19:40.740Z,107.22
2023-02-22T22:22:10.917Z,103.25
2023-02-22T22:24:41.658Z,106.47
2023-02-22T22:27:14.086Z,101.65
2023-02-22T22:29:43.426Z,101.40
2023-02-22T22:32:12.996Z,99.38
2023-02-22T22:34:43.218Z,107.32
2023-02-22T22:37:12.564Z,105.13
2023-02-22T22:39:40.705Z,107.82
2023-02-22T22:42:12.705Z,112.63
2023-02-22T22:44:43.146Z,98.57
2023-02-22T22:47:14.410Z,103.30
2023-02-22T22:49:44.148Z,106.93
2023-02-22T22:52:15.432Z,102.95
2023-02-22T22:54:44.644Z,100.15
2023-02-22T22:57:15.989Z,106.00
2023-02-22T22:59:44.541Z,107.97
2023-02-22T23:02:15.453Z,110.35
2023-02-22T23:04:43.598Z,110.05
2023-02-22T23:07:14.674Z,109.63
2023-02-22T23:09:43.550Z,106.35
2023-02-22T23:12:17.938Z,107.63
2023-02-22T23:14:47.472Z,108.55
2023-02-22T23:17:32.175Z,109.82
2023-02-22T23:20:02.066Z,107.20
2023-02-22T23:22:30.930Z,98.95
2023-02-22T23:25:00.909Z,91.78
2023-02-22T23:27:31.307Z,98.97
2023-02-22T23:30:02.396Z,94.80
2023-02-22T23:32:31.145Z,104.32
2023-02-22T23:35:01.763Z,96.05
2023-02-22T23:37:35.409Z,94.30
2023-02-22T23:40:07.739Z,93.95
2023-02-22T23:42:39.974Z,94.93
2023-02-22T23:45:15.548Z,94.72
2023-02-22T23:47:45.653Z,87.75
2023-02-22T23:50:15.195Z,106.27
2023-02-22T23:52:44.838Z,110.57
2023-02-22T23:55:14.930Z,107.38
2023-02-22T23:57:45.920Z,100.95
